Time;durP1;ratioP1;P1;durP2;ratioP2;P2;SDS_P1;SDS_P2;PMS_P1;PMS_P2;Temp;Humidity;BMP_temperature;BMP_pressure;BME280_temperature;BME280_humidity;BME280_pressure;Samples;Min_cycle;Max_cycle;Signal;HPM_P1;HPM_P2
2023/10/18 00:01:30;;;;;;;10.43;7.80;;;;;;;;;;5035012;28;20553;-84
2023/10/18 00:03:58;;;;;;;10.50;7.68;;;;;;;;;;5033110;28;20112;-84
2023/10/18 00:06:26;;;;;;;12.10;7.68;;;;;;;;;;5032303;28;20128;-84
2023/10/18 00:08:57;;;;;;;10.32;7.75;;;;;;;;;;5029447;28;20462;-85
2023/10/18 00:11:26;;;;;;;10.38;7.38;;;;;;;;;;5030763;28;20050;-85
2023/10/18 00:13:53;;;;;;;11.00;7.55;;;;;;;;;;5019444;28;20049;-85
2023/10/18 00:16:22;;;;;;;11.98;7.35;;;;;;;;;;5028788;28;20053;-84
2023/10/18 00:18:49;;;;;;;10.38;7.18;;;;;;;;;;5033797;28;20491;-84
2023/10/18 00:21:16;;;;;;;9.13;6.88;;;;;;;;;;5025330;28;20441;-84
2023/10/18 00:23:44;;;;;;;9.57;6.88;;;;;;;;;;5037738;28;20045;-84
2023/10/18 00:26:12;;;;;;;10.02;7.13;;;;;;;;;;5039123;28;20428;-84
2023/10/18 00:28:40;;;;;;;10.75;6.63;;;;;;;;;;5029370;28;20046;-85
2023/10/18 00:31:19;;;;;;;10.48;7.20;;;;;;;;;;5031978;28;20046;-85
2023/10/18 00:33:46;;;;;;;9.50;7.07;;;;;;;;;;5027362;28;20077;-85
2023/10/18 00:36:17;;;;;;;8.73;6.75;;;;;;;;;;5036030;28;20045;-85
2023/10/18 00:38:45;;;;;;;8.73;6.72;;;;;;;;;;5038003;28;20076;-85
2023/10/18 00:41:16;;;;;;;7.95;6.95;;;;;;;;;;5033279;28;20057;-85
2023/10/18 00:43:46;;;;;;;12.18;7.25;;;;;;;;;;5040879;28;20057;-85
2023/10/18 00:46:15;;;;;;;15.05;8.38;;;;;;;;;;5048691;28;20053;-81
2023/10/18 00:48:46;;;;;;;9.40;7.03;;;;;;;;;;5052719;28;20036;-83
2023/10/18 00:51:24;;;;;;;14.45;8.00;;;;;;;;;;5028980;28;20052;-84
2023/10/18 00:53:51;;;;;;;9.20;7.22;;;;;;;;;;5022620;28;20463;-84
2023/10/18 00:56:20;;;;;;;9.18;7.60;;;;;;;;;;5029803;28;20466;-85
2023/10/18 00:58:47;;;;;;;9.00;7.38;;;;;;;;;;5030264;28;20049;-84
2023/10/18 01:01:17;;;;;;;13.38;7.47;;;;;;;;;;5047275;28;20052;-84
2023/10/18 01:03:46;;;;;;;10.35;7.43;;;;;;;;;;5029733;28;20465;-84
2023/10/18 01:06:21;;;;;;;14.75;7.72;;;;;;;;;;5029514;28;20049;-84
2023/10/18 01:08:49;;;;;;;9.95;6.93;;;;;;;;;;5001932;28;20077;-84
2023/10/18 01:11:23;;;;;;;10.00;7.18;;;;;;;;;;5021989;28;20050;-84
2023/10/18 01:13:55;;;;;;;9.82;6.97;;;;;;;;;;5020858;28;20518;-84
2023/10/18 01:16:22;;;;;;;11.57;7.45;;;;;;;;;;5030128;28;20057;-84
2023/10/18 01:18:51;;;;;;;8.65;6.55;;;;;;;;;;5036994;28;20495;-84
2023/10/18 01:21:20;;;;;;;14.93;7.90;;;;;;;;;;5030499;28;20076;-84
2023/10/18 01:23:51;;;;;;;11.82;7.22;;;;;;;;;;5032995;28;20048;-84
2023/10/18 01:26:23;;;;;;;12.57;7.65;;;;;;;;;;5024993;28;20100;-84
2023/10/18 01:28:54;;;;;;;10.82;7.20;;;;;;;;;;5022981;28;20048;-84
2023/10/18 01:31:22;;;;;;;13.57;8.27;;;;;;;;;;5029371;28;20072;-84
2023/10/18 01:33:50;;;;;;;10.75;7.80;;;;;;;;;;5033264;28;20052;-85
2023/10/18 01:36:20;;;;;;;13.30;8.18;;;;;;;;;;5024840;28;20545;-84
2023/10/18 01:38:52;;;;;;;11.93;7.80;;;;;;;;;;5009581;28;20054;-84
2023/10/18 01:41:26;;;;;;;14.65;7.38;;;;;;;;;;5025638;28;20045;-84
2023/10/18 01:44:05;;;;;;;14.18;8.00;;;;;;;;;;5036841;28;20095;-85
2023/10/18 01:46:33;;;;;;;14.50;8.10;;;;;;;;;;5025738;28;20081;-84
2023/10/18 01:49:01;;;;;;;10.32;7.60;;;;;;;;;;5036454;28;20507;-85
2023/10/18 01:51:29;;;;;;;11.85;7.53;;;;;;;;;;5047647;28;20053;-84
2023/10/18 01:54:01;;;;;;;11.88;6.95;;;;;;;;;;5035825;28;20055;-84
2023/10/18 01:56:28;;;;;;;10.50;7.90;;;;;;;;;;5032922;28;20510;-84
2023/10/18 01:58:56;;;;;;;12.35;8.32;;;;;;;;;;5030581;28;20057;-84
2023/10/18 02:01:23;;;;;;;11.88;7.82;;;;;;;;;;5029470;28;20049;-85
2023/10/18 02:03:51;;;;;;;9.15;7.57;;;;;;;;;;5014212;28;20087;-85
2023/10/18 02:06:20;;;;;;;9.55;7.75;;;;;;;;;;5047241;28;20052;-85
2023/10/18 02:08:48;;;;;;;13.30;8.95;;;;;;;;;;5020574;28;20045;-85
2023/10/18 02:11:16;;;;;;;13.38;8.68;;;;;;;;;;5028986;28;20054;-84
2023/10/18 02:13:43;;;;;;;13.32;8.65;;;;;;;;;;5031400;28;20162;-84
2023/10/18 02:16:15;;;;;;;14.50;9.10;;;;;;;;;;5032294;28;20058;-84
2023/10/18 02:18:48;;;;;;;11.82;7.75;;;;;;;;;;5032222;28;20045;-84
2023/10/18 02:21:16;;;;;;;11.80;7.45;;;;;;;;;;5020635;28;20111;-83
2023/10/18 02:23:48;;;;;;;10.05;8.45;;;;;;;;;;5028272;28;20055;-84
2023/10/18 02:29:12;;;;;;;12.70;8.63;;;;;;;;;;5002847;28;20053;-85
2023/10/18 02:31:42;;;;;;;14.38;8.20;;;;;;;;;;5030234;28;20049;-85
2023/10/18 02:34:14;;;;;;;13.68;8.60;;;;;;;;;;5024498;28;20509;-83
2023/10/18 02:36:58;;;;;;;11.48;8.10;;;;;;;;;;5023734;28;20072;-85
2023/10/18 02:39:30;;;;;;;14.80;8.50;;;;;;;;;;5018248;28;20484;-84
2023/10/18 02:41:58;;;;;;;13.80;8.98;;;;;;;;;;5031548;28;20056;-84
2023/10/18 02:44:28;;;;;;;13.05;8.32;;;;;;;;;;5048729;28;20048;-85
2023/10/18 02:47:07;;;;;;;14.18;8.50;;;;;;;;;;5045850;28;20049;-85
2023/10/18 02:49:34;;;;;;;13.68;8.90;;;;;;;;;;5048205;28;20075;-84
2023/10/18 02:52:03;;;;;;;11.48;8.55;;;;;;;;;;5032031;28;20048;-84
2023/10/18 02:54:32;;;;;;;13.02;9.13;;;;;;;;;;5022386;28;20469;-85
2023/10/18 02:56:59;;;;;;;14.00;8.98;;;;;;;;;;5027202;28;20049;-84
2023/10/18 02:59:27;;;;;;;13.35;8.85;;;;;;;;;;5027602;28;20131;-85
2023/10/18 03:01:56;;;;;;;14.75;9.13;;;;;;;;;;5028376;28;20053;-84
2023/10/18 03:04:26;;;;;;;17.10;9.15;;;;;;;;;;5027847;28;20521;-85
2023/10/18 03:06:54;;;;;;;13.65;9.40;;;;;;;;;;5027802;28;20042;-85
2023/10/18 03:12:03;;;;;;;14.55;8.55;;;;;;;;;;5049400;28;20523;-85
2023/10/18 03:14:39;;;;;;;13.38;8.82;;;;;;;;;;5030341;28;20051;-86
2023/10/18 03:17:22;;;;;;;14.88;9.27;;;;;;;;;;5029362;28;20561;-85
2023/10/18 03:19:50;;;;;;;14.60;7.40;;;;;;;;;;5025607;28;20080;-85
2023/10/18 03:22:19;;;;;;;13.15;8.20;;;;;;;;;;5026033;28;20491;-85
2023/10/18 03:24:58;;;;;;;14.48;9.05;;;;;;;;;;5029738;28;20110;-85
2023/10/18 03:27:32;;;;;;;14.98;8.75;;;;;;;;;;5030537;28;20057;-85
2023/10/18 03:30:09;;;;;;;13.90;8.48;;;;;;;;;;5033349;28;20080;-85
2023/10/18 03:32:38;;;;;;;20.38;9.00;;;;;;;;;;5034419;28;20128;-85
2023/10/18 03:35:09;;;;;;;16.05;9.43;;;;;;;;;;5035391;28;20125;-85
2023/10/18 03:37:39;;;;;;;12.80;8.52;;;;;;;;;;5043751;28;20487;-85
2023/10/18 03:40:27;;;;;;;14.10;9.27;;;;;;;;;;5034927;28;20265;-85
2023/10/18 03:42:57;;;;;;;13.77;9.15;;;;;;;;;;5032012;28;20131;-86
2023/10/18 03:45:58;;;;;;;11.80;8.68;;;;;;;;;;5039642;28;20056;-85
2023/10/18 03:48:23;;;;;;;13.40;9.15;;;;;;;;;;5049243;28;20050;-85
2023/10/18 03:50:54;;;;;;;13.07;8.63;;;;;;;;;;5025919;28;20049;-86
2023/10/18 03:53:22;;;;;;;14.13;9.75;;;;;;;;;;5038291;28;20069;-83
2023/10/18 03:55:55;;;;;;;14.18;9.27;;;;;;;;;;5049156;28;20033;-81
2023/10/18 03:58:24;;;;;;;13.45;9.43;;;;;;;;;;5030093;28;20060;-85
2023/10/18 04:00:55;;;;;;;20.30;9.65;;;;;;;;;;5016233;28;20064;-85
2023/10/18 04:03:29;;;;;;;16.52;9.30;;;;;;;;;;5024928;28;20049;-85
2023/10/18 04:06:04;;;;;;;18.88;9.57;;;;;;;;;;5026624;28;20041;-84
2023/10/18 04:08:32;;;;;;;12.32;8.70;;;;;;;;;;5035285;28;20528;-84
2023/10/18 04:10:59;;;;;;;20.08;9.45;;;;;;;;;;5028138;28;20095;-84
2023/10/18 04:13:31;;;;;;;16.98;9.45;;;;;;;;;;5045189;28;20149;-85
2023/10/18 04:16:09;;;;;;;13.00;9.38;;;;;;;;;;5024067;28;20092;-85
2023/10/18 04:18:41;;;;;;;11.88;8.93;;;;;;;;;;5023713;28;20068;-85
2023/10/18 04:21:15;;;;;;;14.57;8.98;;;;;;;;;;5032345;28;20437;-85
2023/10/18 04:23:46;;;;;;;11.80;9.10;;;;;;;;;;5041693;28;20049;-85
2023/10/18 04:26:18;;;;;;;13.55;8.63;;;;;;;;;;5024669;28;20395;-85
2023/10/18 04:28:46;;;;;;;21.60;9.93;;;;;;;;;;5015836;28;20045;-85
2023/10/18 04:31:14;;;;;;;18.25;10.52;;;;;;;;;;5031705;28;20453;-85
2023/10/18 04:33:43;;;;;;;13.52;9.95;;;;;;;;;;5030165;28;20049;-86
2023/10/18 04:36:12;;;;;;;15.90;10.52;;;;;;;;;;5046548;28;20450;-85
2023/10/18 04:38:43;;;;;;;18.23;11.40;;;;;;;;;;5028680;28;20132;-85
2023/10/18 04:43:57;;;;;;;17.00;10.93;;;;;;;;;;5050378;28;20438;-85
2023/10/18 04:46:27;;;;;;;25.50;11.45;;;;;;;;;;5031164;28;20188;-85
2023/10/18 04:51:26;;;;;;;21.20;11.00;;;;;;;;;;5046449;28;20487;-85
2023/10/18 04:53:56;;;;;;;20.00;11.18;;;;;;;;;;5035288;28;20049;-83
2023/10/18 04:56:34;;;;;;;17.88;10.02;;;;;;;;;;5042805;28;20055;-84
2023/10/18 04:59:09;;;;;;;18.27;10.02;;;;;;;;;;5031434;28;20053;-85
2023/10/18 05:01:36;;;;;;;13.38;9.18;;;;;;;;;;5025405;28;20064;-83
2023/10/18 05:04:19;;;;;;;17.30;10.40;;;;;;;;;;5034812;28;20051;-86
2023/10/18 05:09:45;;;;;;;16.77;10.13;;;;;;;;;;5047523;28;20479;-93
2023/10/18 05:14:42;;;;;;;15.63;10.30;;;;;;;;;;5044598;28;20089;-92
2023/10/18 05:17:23;;;;;;;20.75;11.20;;;;;;;;;;5027238;28;20061;-93
2023/10/18 05:19:51;;;;;;;17.65;10.48;;;;;;;;;;5051538;28;20108;-93
2023/10/18 05:22:23;;;;;;;15.27;9.60;;;;;;;;;;5026232;28;20123;-92
2023/10/18 05:27:59;;;;;;;21.35;10.73;;;;;;;;;;5045955;28;20489;-93
2023/10/18 05:31:02;;;;;;;18.38;11.07;;;;;;;;;;5047039;28;20045;-93
2023/10/18 05:33:16;;;;;;;19.70;11.82;;;;;;;;;;5046850;28;20547;-93
2023/10/18 05:35:44;;;;;;;20.40;12.05;;;;;;;;;;5026292;28;20410;-92
2023/10/18 05:43:12;;;;;;;29.00;15.63;;;;;;;;;;5049282;28;20358;-92
2023/10/18 05:45:41;;;;;;;21.63;13.80;;;;;;;;;;5029036;28;20129;-93
2023/10/18 05:48:17;;;;;;;24.25;14.30;;;;;;;;;;5030971;28;20135;-92
2023/10/18 05:50:49;;;;;;;24.70;14.35;;;;;;;;;;5029570;28;20053;-93
2023/10/18 05:53:24;;;;;;;25.27;15.32;;;;;;;;;;5029460;28;20044;-93
2023/10/18 05:55:55;;;;;;;21.08;13.25;;;;;;;;;;5044998;28;20442;-93
2023/10/18 05:58:26;;;;;;;27.02;13.25;;;;;;;;;;5030977;28;20041;-93
2023/10/18 06:00:55;;;;;;;21.45;13.85;;;;;;;;;;5051673;28;20053;-93
2023/10/18 06:03:25;;;;;;;26.65;16.83;;;;;;;;;;5045611;28;20061;-93
2023/10/18 06:05:57;;;;;;;21.10;12.93;;;;;;;;;;5025355;28;20072;-92
2023/10/18 06:08:25;;;;;;;23.38;13.10;;;;;;;;;;5026261;28;20064;-92
2023/10/18 06:10:59;;;;;;;22.02;13.10;;;;;;;;;;5032492;28;20112;-93
2023/10/18 06:13:27;;;;;;;19.63;12.02;;;;;;;;;;5026271;28;20168;-92
2023/10/18 06:15:58;;;;;;;23.75;13.60;;;;;;;;;;5028871;28;20041;-92
2023/10/18 06:18:30;;;;;;;25.63;15.23;;;;;;;;;;5028505;28;20049;-92
2023/10/18 06:20:59;;;;;;;27.63;14.85;;;;;;;;;;5025615;28;20501;-93
2023/10/18 06:26:09;;;;;;;51.58;19.42;;;;;;;;;;5046292;28;20464;-93
2023/10/18 06:28:37;;;;;;;30.95;16.25;;;;;;;;;;5026882;28;20053;-93
2023/10/18 06:31:08;;;;;;;27.05;16.77;;;;;;;;;;5031314;28;20071;-95
2023/10/18 06:33:36;;;;;;;34.72;15.70;;;;;;;;;;5026610;28;20493;-93
2023/10/18 06:36:11;;;;;;;26.55;15.35;;;;;;;;;;5024971;28;20453;-93
2023/10/18 06:38:39;;;;;;;23.95;14.63;;;;;;;;;;5027965;28;20122;-94
2023/10/18 06:41:18;;;;;;;26.17;15.10;;;;;;;;;;5029062;28;20049;-94
2023/10/18 06:43:46;;;;;;;31.52;14.13;;;;;;;;;;5028871;28;20543;-94
2023/10/18 06:46:15;;;;;;;29.65;15.55;;;;;;;;;;5029672;28;20053;-94
2023/10/18 06:48:44;;;;;;;34.58;14.13;;;;;;;;;;5028102;28;20053;-95
2023/10/18 06:51:33;;;;;;;26.77;14.63;;;;;;;;;;5030903;28;20052;-95
2023/10/18 06:54:03;;;;;;;46.75;17.02;;;;;;;;;;5029106;28;20083;-95
2023/10/18 06:56:32;;;;;;;22.25;13.57;;;;;;;;;;5036638;28;20057;-93
2023/10/18 06:59:07;;;;;;;27.10;15.52;;;;;;;;;;5038204;28;20115;-95
2023/10/18 07:01:41;;;;;;;25.38;15.82;;;;;;;;;;5029713;28;20053;-95
2023/10/18 07:04:18;;;;;;;33.88;16.00;;;;;;;;;;5030674;28;20067;-95
2023/10/18 07:06:46;;;;;;;24.75;15.20;;;;;;;;;;5022259;28;20057;-96
2023/10/18 07:09:26;;;;;;;25.10;15.25;;;;;;;;;;5033660;28;20057;-95
2023/10/18 07:11:57;;;;;;;24.55;15.90;;;;;;;;;;5046689;28;20064;-96
2023/10/18 07:14:53;;;;;;;20.25;13.73;;;;;;;;;;5038579;28;20053;-95
2023/10/18 07:17:26;;;;;;;22.85;14.73;;;;;;;;;;5053527;28;20136;-95
2023/10/18 07:20:15;;;;;;;20.92;14.15;;;;;;;;;;5041623;28;20049;-95
2023/10/18 07:22:58;;;;;;;25.85;13.88;;;;;;;;;;5355192;23;20045;-94
2023/10/18 07:25:29;;;;;;;23.75;13.65;;;;;;;;;;5053106;28;20056;-94
2023/10/18 07:31:10;;;;;;;23.70;13.40;;;;;;;;;;5369867;22;20530;-79
2023/10/18 07:33:41;;;;;;;18.13;11.90;;;;;;;;;;5042832;28;20129;-79
2023/10/18 07:36:09;;;;;;;22.73;12.52;;;;;;;;;;5022457;28;20087;-79
2023/10/18 07:38:55;;;;;;;36.20;14.10;;;;;;;;;;5040388;28;20046;-78
2023/10/18 07:41:28;;;;;;;20.55;12.13;;;;;;;;;;5038258;28;20049;-78
2023/10/18 07:43:56;;;;;;;;;;;;;;;;;;5035932;28;20481;-79
2023/10/18 07:46:25;;;;;;;17.17;11.63;;;;;;;;;;5036993;28;19921;-78
2023/10/18 07:48:53;;;;;;;17.90;10.43;;;;;;;;;;5038212;28;20060;-79
2023/10/18 07:51:23;;;;;;;20.80;11.13;;;;;;;;;;5038364;28;20049;-78
2023/10/18 07:53:54;;;;;;;14.05;10.52;;;;;;;;;;5037534;28;20052;-79
2023/10/18 07:56:27;;;;;;;13.45;10.18;;;;;;;;;;5037580;28;20523;-79
2023/10/18 07:58:55;;;;;;;;;;;;;;;;;;5036756;28;20103;-78
2023/10/18 08:04:09;;;;;;;18.20;9.90;;;;;;;;;;5037969;28;20046;-79
2023/10/18 08:06:39;;;;;;;30.10;10.60;;;;;;;;;;5037475;28;20080;-79
2023/10/18 08:09:06;;;;;;;31.08;11.35;;;;;;;;;;5036970;28;20051;-80
2023/10/18 08:11:34;;;;;;;16.20;9.40;;;;;;;;;;5036478;28;20046;-79
2023/10/18 08:14:13;;;;;;;13.85;8.27;;;;;;;;;;5037264;28;20084;-79
2023/10/18 08:16:43;;;;;;;9.00;6.97;;;;;;;;;;5020093;28;20451;-80
2023/10/18 08:19:11;;;;;;;17.17;7.93;;;;;;;;;;5036908;28;20124;-79
2023/10/18 08:21:39;;;;;;;17.45;7.72;;;;;;;;;;5037367;28;20076;-80
2023/10/18 08:24:08;;;;;;;11.40;7.55;;;;;;;;;;5040212;28;20510;-79
2023/10/18 08:26:48;;;;;;;14.20;7.70;;;;;;;;;;5032122;28;20077;-80
2023/10/18 08:29:16;;;;;;;8.90;6.63;;;;;;;;;;5041371;28;20050;-80
2023/10/18 08:31:55;;;;;;;15.52;6.90;;;;;;;;;;5040050;28;20522;-79
2023/10/18 08:34:23;;;;;;;8.55;6.25;;;;;;;;;;5040489;28;20057;-80
2023/10/18 08:37:01;;;;;;;12.00;7.38;;;;;;;;;;5041937;28;20050;-80
2023/10/18 08:39:28;;;;;;;12.57;6.13;;;;;;;;;;5042665;28;20057;-80
2023/10/18 08:42:15;;;;;;;11.30;6.45;;;;;;;;;;5041813;28;20080;-79
2023/10/18 08:44:44;;;;;;;7.95;6.20;;;;;;;;;;5040093;28;20123;-77
2023/10/18 08:47:12;;;;;;;9.48;6.18;;;;;;;;;;5040902;28;20045;-77
2023/10/18 08:49:45;;;;;;;9.27;6.43;;;;;;;;;;5041151;28;20041;-77
2023/10/18 08:52:16;;;;;;;6.35;5.75;;;;;;;;;;5039499;28;20042;-78
2023/10/18 08:54:44;;;;;;;9.57;6.07;;;;;;;;;;5041784;28;20045;-77
2023/10/18 08:57:11;;;;;;;7.32;6.00;;;;;;;;;;5040175;28;20515;-77
2023/10/18 08:59:50;;;;;;;9.98;5.75;;;;;;;;;;5039187;28;20109;-76
2023/10/18 09:02:18;;;;;;;8.23;6.30;;;;;;;;;;5040309;28;20056;-77
2023/10/18 09:04:47;;;;;;;10.88;5.55;;;;;;;;;;5041440;28;20053;-77
2023/10/18 09:07:21;;;;;;;10.20;5.55;;;;;;;;;;5040236;28;20496;-78
2023/10/18 09:09:55;;;;;;;10.13;5.60;;;;;;;;;;5039548;28;20516;-77
2023/10/18 09:17:50;;;;;;;13.68;5.47;;;;;;;;;;5040173;28;20056;-77
2023/10/18 09:20:18;;;;;;;10.02;5.95;;;;;;;;;;5039080;28;20050;-77
2023/10/18 09:22:48;;;;;;;10.15;5.18;;;;;;;;;;5041037;28;20196;-77
2023/10/18 09:25:15;;;;;;;16.10;6.53;;;;;;;;;;5040765;28;20077;-77
2023/10/18 09:27:45;;;;;;;14.13;6.82;;;;;;;;;;5039903;28;20504;-77
2023/10/18 09:30:18;;;;;;;23.65;8.60;;;;;;;;;;5037121;28;20481;-78
2023/10/18 09:32:46;;;;;;;35.63;9.30;;;;;;;;;;5021411;28;20054;-78
2023/10/18 09:35:25;;;;;;;24.70;9.13;;;;;;;;;;5022011;28;20050;-78
2023/10/18 09:37:53;;;;;;;22.90;9.68;;;;;;;;;;5021987;28;20050;-78
2023/10/18 09:40:20;;;;;;;35.50;12.00;;;;;;;;;;5021446;28;20647;-78
2023/10/18 09:42:50;;;;;;;19.08;8.27;;;;;;;;;;5020313;28;20046;-79
2023/10/18 09:45:20;;;;;;;15.07;7.47;;;;;;;;;;5017586;28;20406;-78
2023/10/18 09:47:49;;;;;;;13.07;6.75;;;;;;;;;;5013410;28;20042;-79
2023/10/18 09:50:23;;;;;;;13.75;6.90;;;;;;;;;;5022387;28;20105;-79
2023/10/18 09:52:56;;;;;;;13.63;6.45;;;;;;;;;;5020807;28;20046;-78
2023/10/18 09:55:27;;;;;;;18.07;6.97;;;;;;;;;;5020472;28;20046;-78
2023/10/18 09:58:04;;;;;;;14.43;7.05;;;;;;;;;;5020580;28;20339;-78
2023/10/18 10:00:42;;;;;;;14.25;7.40;;;;;;;;;;5020501;28;20425;-78
2023/10/18 10:03:10;;;;;;;16.52;7.18;;;;;;;;;;5021400;28;20060;-78
2023/10/18 10:05:42;;;;;;;15.20;7.65;;;;;;;;;;5021051;28;20157;-79
2023/10/18 10:08:10;;;;;;;15.18;7.60;;;;;;;;;;5021317;28;20057;-78
2023/10/18 10:10:44;;;;;;;12.25;6.70;;;;;;;;;;5020945;28;20045;-79
2023/10/18 10:13:13;;;;;;;10.98;6.93;;;;;;;;;;5021564;28;20054;-79
2023/10/18 10:15:40;;;;;;;13.25;6.88;;;;;;;;;;5026919;28;20052;-78
2023/10/18 10:18:09;;;;;;;9.98;6.45;;;;;;;;;;5020204;28;20058;-79
2023/10/18 10:20:40;;;;;;;11.60;6.60;;;;;;;;;;5019576;28;20056;-79
2023/10/18 10:23:14;;;;;;;9.18;6.32;;;;;;;;;;5016317;28;20050;-79
2023/10/18 10:25:49;;;;;;;13.20;7.07;;;;;;;;;;5028039;28;20062;-79
2023/10/18 10:31:51;;;;;;;10.95;6.75;;;;;;;;;;5038716;28;20467;-78
2023/10/18 10:34:26;;;;;;;10.00;5.72;;;;;;;;;;5036371;28;20509;-79
2023/10/18 10:37:08;;;;;;;10.82;5.65;;;;;;;;;;5016036;28;20072;-79
2023/10/18 10:39:44;;;;;;;12.05;5.95;;;;;;;;;;5040150;28;20081;-79
2023/10/18 10:42:19;;;;;;;14.80;5.63;;;;;;;;;;5040081;28;20100;-79
2023/10/18 10:45:08;;;;;;;9.80;5.82;;;;;;;;;;5032234;28;20128;-79
2023/10/18 10:47:42;;;;;;;12.35;5.97;;;;;;;;;;5039918;28;20049;-79
2023/10/18 10:50:10;;;;;;;14.38;5.57;;;;;;;;;;5039835;28;20100;-78
2023/10/18 10:52:44;;;;;;;6.88;4.65;;;;;;;;;;5039405;28;20480;-79
2023/10/18 10:55:22;;;;;;;10.13;5.07;;;;;;;;;;5040848;28;20103;-80
2023/10/18 10:57:50;;;;;;;9.18;5.65;;;;;;;;;;5039761;28;20053;-79
2023/10/18 11:00:22;;;;;;;9.30;5.30;;;;;;;;;;5039687;28;20049;-78
2023/10/18 11:02:54;;;;;;;9.48;5.72;;;;;;;;;;5033102;28;20050;-78
2023/10/18 11:05:24;;;;;;;7.90;4.97;;;;;;;;;;5041065;28;20049;-79
2023/10/18 11:07:57;;;;;;;12.50;5.80;;;;;;;;;;5040754;28;20132;-78
2023/10/18 11:10:27;;;;;;;11.07;5.15;;;;;;;;;;5040619;28;20041;-79
2023/10/18 11:12:54;;;;;;;10.73;5.03;;;;;;;;;;5038944;28;20458;-78
2023/10/18 11:15:27;;;;;;;8.57;5.28;;;;;;;;;;5038521;28;20496;-79
2023/10/18 11:18:09;;;;;;;14.88;5.55;;;;;;;;;;5040959;28;20060;-79
2023/10/18 11:23:26;;;;;;;7.85;4.97;;;;;;;;;;5040181;28;20491;-78
2023/10/18 11:25:56;;;;;;;7.15;5.07;;;;;;;;;;5036873;28;20087;-78
2023/10/18 11:28:31;;;;;;;14.23;5.65;;;;;;;;;;5035763;28;20057;-79
2023/10/18 11:31:00;;;;;;;10.63;5.65;;;;;;;;;;5038887;28;20053;-78
2023/10/18 11:33:35;;;;;;;10.05;5.50;;;;;;;;;;5040168;28;20072;-79
2023/10/18 11:36:03;;;;;;;7.32;5.10;;;;;;;;;;5038811;28;20141;-78
2023/10/18 11:38:34;;;;;;;9.50;5.18;;;;;;;;;;5038858;28;20568;-79
2023/10/18 11:41:09;;;;;;;5.00;4.50;;;;;;;;;;5033040;28;20057;-78
2023/10/18 11:43:40;;;;;;;12.10;5.30;;;;;;;;;;5040772;28;20117;-78
2023/10/18 11:46:12;;;;;;;8.15;4.70;;;;;;;;;;5040182;28;20054;-78
2023/10/18 11:48:41;;;;;;;6.07;4.60;;;;;;;;;;5039487;28;20049;-79
2023/10/18 11:51:08;;;;;;;7.53;4.43;;;;;;;;;;5038996;28;20046;-78
2023/10/18 11:53:35;;;;;;;7.10;4.80;;;;;;;;;;5038891;28;20484;-79
2023/10/18 11:56:08;;;;;;;7.22;4.55;;;;;;;;;;5032608;28;20050;-78
2023/10/18 11:58:37;;;;;;;5.93;4.40;;;;;;;;;;5038743;28;20128;-79
2023/10/18 12:01:17;;;;;;;5.00;4.15;;;;;;;;;;5032553;28;20054;-78
2023/10/18 12:03:46;;;;;;;6.57;3.85;;;;;;;;;;5036403;28;20132;-78
2023/10/18 12:06:14;;;;;;;6.03;4.55;;;;;;;;;;5037123;28;20431;-78
2023/10/18 12:08:47;;;;;;;7.80;4.43;;;;;;;;;;5037821;28;20045;-77
2023/10/18 12:11:16;;;;;;;;;;;;;;;;;;5038500;28;20096;-78
2023/10/18 12:13:43;;;;;;;6.35;4.25;;;;;;;;;;5036837;28;19925;-78
2023/10/18 12:16:11;;;;;;;5.60;3.58;;;;;;;;;;5036836;28;20049;-79
2023/10/18 12:18:38;;;;;;;3.90;3.42;;;;;;;;;;5036845;28;20349;-78
2023/10/18 12:21:05;;;;;;;3.75;3.28;;;;;;;;;;5037110;28;20107;-78
2023/10/18 12:23:35;;;;;;;3.65;3.35;;;;;;;;;;5036420;28;20119;-78
2023/10/18 12:26:06;;;;;;;7.50;3.60;;;;;;;;;;5036979;28;20049;-78
2023/10/18 12:28:37;;;;;;;6.28;3.38;;;;;;;;;;5036947;28;20085;-78
2023/10/18 12:31:16;;;;;;;4.05;2.90;;;;;;;;;;5036663;28;20115;-78
2023/10/18 12:33:49;;;;;;;6.88;3.13;;;;;;;;;;5032496;28;20137;-77
2023/10/18 12:36:22;;;;;;;4.38;2.92;;;;;;;;;;5031752;28;20045;-77
2023/10/18 12:38:50;;;;;;;5.18;3.13;;;;;;;;;;5035556;28;20046;-77
2023/10/18 12:41:31;;;;;;;4.93;3.00;;;;;;;;;;5036875;28;20041;-78
2023/10/18 12:44:03;;;;;;;33.85;5.10;;;;;;;;;;5035483;28;20053;-77
2023/10/18 12:46:30;;;;;;;7.63;3.35;;;;;;;;;;5035018;28;20049;-78
2023/10/18 12:48:57;;;;;;;9.57;3.53;;;;;;;;;;5035781;28;20072;-78
2023/10/18 12:51:31;;;;;;;5.18;3.15;;;;;;;;;;5034359;28;20140;-78
2023/10/18 12:53:59;;;;;;;3.83;2.67;;;;;;;;;;5030428;28;20057;-78
2023/10/18 13:04:06;;;;;;;;;;;;;;;;;;5037007;28;20049;-78
2023/10/18 13:06:44;;;;;;;6.68;2.72;;;;;;;;;;5034917;28;19925;-77
2023/10/18 13:11:46;;;;;;;6.47;3.13;;;;;;;;;;5035835;28;20136;-77
2023/10/18 13:14:23;;;;;;;11.68;3.45;;;;;;;;;;5035253;28;20079;-77
2023/10/18 13:16:54;;;;;;;5.32;2.85;;;;;;;;;;5034938;28;20099;-78
2023/10/18 13:19:23;;;;;;;8.93;3.72;;;;;;;;;;5034853;28;20057;-77
2023/10/18 13:21:51;;;;;;;8.50;3.53;;;;;;;;;;5036051;28;20504;-78
2023/10/18 13:26:53;;;;;;;6.28;2.60;;;;;;;;;;5036376;28;20056;-78
2023/10/18 13:31:49;;;;;;;4.60;2.90;;;;;;;;;;5035756;28;20045;-78
2023/10/18 13:34:19;;;;;;;4.60;3.15;;;;;;;;;;5034332;28;20107;-77
2023/10/18 13:36:47;;;;;;;3.80;3.25;;;;;;;;;;5026284;28;20046;-78
2023/10/18 13:39:16;;;;;;;5.78;3.05;;;;;;;;;;5042475;28;20037;-77
2023/10/18 13:41:47;;;;;;;3.13;2.80;;;;;;;;;;5057188;28;20129;-77
2023/10/18 13:44:19;;;;;;;4.07;2.63;;;;;;;;;;5055757;28;20531;-77
2023/10/18 13:46:57;;;;;;;2.60;2.40;;;;;;;;;;5055341;28;20064;-77
2023/10/18 13:49:39;;;;;;;3.88;2.90;;;;;;;;;;5056540;28;20563;-78
2023/10/18 13:52:07;;;;;;;5.90;3.22;;;;;;;;;;5056586;28;20048;-78
2023/10/18 13:54:36;;;;;;;3.95;3.22;;;;;;;;;;5056139;28;20033;-77
2023/10/18 13:57:05;;;;;;;7.32;3.08;;;;;;;;;;5054955;28;20076;-77
2023/10/18 13:59:34;;;;;;;6.00;3.05;;;;;;;;;;5037844;28;20053;-77
2023/10/18 14:02:02;;;;;;;3.13;2.55;;;;;;;;;;5035922;28;20057;-79
2023/10/18 14:04:32;;;;;;;4.18;2.85;;;;;;;;;;5034167;28;20057;-77
2023/10/18 14:07:00;;;;;;;5.80;2.97;;;;;;;;;;5034184;28;20053;-77
2023/10/18 14:09:33;;;;;;;4.22;3.17;;;;;;;;;;5034330;28;20041;-77
2023/10/18 14:12:01;;;;;;;3.35;2.83;;;;;;;;;;5035597;28;20048;-77
2023/10/18 14:14:31;;;;;;;3.85;2.97;;;;;;;;;;5040924;28;20041;-78
2023/10/18 14:16:59;;;;;;;3.00;2.42;;;;;;;;;;5035153;28;20053;-77
2023/10/18 14:19:29;;;;;;;6.15;3.10;;;;;;;;;;5034998;28;20091;-78
2023/10/18 14:21:57;;;;;;;5.78;3.42;;;;;;;;;;5034322;28;20049;-78
2023/10/18 14:24:25;;;;;;;3.58;3.08;;;;;;;;;;5039672;28;20054;-78
2023/10/18 14:26:52;;;;;;;9.48;5.32;;;;;;;;;;5035868;28;20492;-77
2023/10/18 14:29:25;;;;;;;4.57;3.33;;;;;;;;;;5034554;28;20057;-77
2023/10/18 14:31:53;;;;;;;3.67;3.30;;;;;;;;;;5034939;28;20050;-78
2023/10/18 14:34:22;;;;;;;5.55;5.05;;;;;;;;;;5033288;28;20049;-77
2023/10/18 14:36:50;;;;;;;6.28;3.47;;;;;;;;;;5030673;28;20049;-77
2023/10/18 14:39:22;;;;;;;4.55;3.60;;;;;;;;;;5029343;28;20045;-77
2023/10/18 14:42:11;;;;;;;9.43;3.55;;;;;;;;;;5070944;28;20375;-77
2023/10/18 14:44:38;;;;;;;4.57;3.72;;;;;;;;;;5070680;28;20457;-77
2023/10/18 14:47:07;;;;;;;4.20;2.85;;;;;;;;;;5070835;28;20594;-77
2023/10/18 14:49:34;;;;;;;4.20;3.58;;;;;;;;;;5070838;28;20439;-77
2023/10/18 14:52:10;;;;;;;4.47;3.78;;;;;;;;;;5069513;28;20048;-78
2023/10/18 14:54:41;;;;;;;5.68;3.45;;;;;;;;;;5069781;28;20068;-79
2023/10/18 14:57:08;;;;;;;3.80;3.40;;;;;;;;;;5070492;28;20499;-78
2023/10/18 14:59:37;;;;;;;4.78;3.30;;;;;;;;;;5070119;28;20048;-77
2023/10/18 15:02:05;;;;;;;6.85;3.40;;;;;;;;;;5070977;28;20410;-78
2023/10/18 15:04:32;;;;;;;6.53;4.25;;;;;;;;;;5070770;28;20047;-78
2023/10/18 15:06:59;;;;;;;6.22;4.30;;;;;;;;;;5070512;28;20094;-78
2023/10/18 15:09:27;;;;;;;3.40;3.10;;;;;;;;;;5069839;28;20049;-78
2023/10/18 15:11:55;;;;;;;6.43;3.28;;;;;;;;;;5069483;28;20127;-78
2023/10/18 15:14:22;;;;;;;4.13;3.38;;;;;;;;;;5061625;28;20103;-78
2023/10/18 15:16:49;;;;;;;6.40;4.05;;;;;;;;;;5070972;28;20049;-79
2023/10/18 15:19:17;;;;;;;3.95;3.08;;;;;;;;;;5063221;28;20103;-79
2023/10/18 15:21:47;;;;;;;6.95;3.38;;;;;;;;;;5068850;28;20091;-79
2023/10/18 15:24:15;;;;;;;7.13;4.10;;;;;;;;;;5070326;28;20060;-79
2023/10/18 15:26:42;;;;;;;10.02;3.50;;;;;;;;;;5069684;28;20048;-78
2023/10/18 15:29:09;;;;;;;5.32;4.28;;;;;;;;;;5069782;28;20434;-79
2023/10/18 15:31:37;;;;;;;17.00;4.78;;;;;;;;;;5069274;28;20048;-78
2023/10/18 15:34:05;;;;;;;18.45;4.90;;;;;;;;;;5070510;28;20052;-78
2023/10/18 15:36:32;;;;;;;12.35;3.97;;;;;;;;;;5070736;28;20049;-78
2023/10/18 15:39:00;;;;;;;17.40;4.35;;;;;;;;;;5069639;28;20118;-78
2023/10/18 15:41:27;;;;;;;14.70;4.43;;;;;;;;;;5070178;28;20053;-78
2023/10/18 15:43:58;;;;;;;10.82;4.45;;;;;;;;;;5069134;28;20765;-78
2023/10/18 15:46:29;;;;;;;21.42;5.25;;;;;;;;;;5069383;28;20515;-78
2023/10/18 15:49:00;;;;;;;29.80;7.53;;;;;;;;;;5069318;28;20462;-78
2023/10/18 15:51:28;;;;;;;27.85;7.57;;;;;;;;;;5068998;28;20048;-78
2023/10/18 15:53:56;;;;;;;20.08;5.28;;;;;;;;;;5055213;28;20469;-78
2023/10/18 15:56:27;;;;;;;19.48;5.03;;;;;;;;;;5057032;28;20136;-77